createdAt,value
2022-11-23T00:00:15.731Z,101134.56
2022-11-23T00:02:46.561Z,101128.84
2022-11-23T00:05:17.109Z,101136.28
2022-11-23T00:07:48.037Z,101139.63
2022-11-23T00:10:19.175Z,101151.44
2022-11-23T00:12:50.299Z,101165.25
2022-11-23T00:15:21.509Z,101161.56
2022-11-23T00:17:51.782Z,101167.59
2022-11-23T00:20:23.298Z,101161.91
2022-11-23T00:22:58.595Z,101166.09
2022-11-23T00:25:28.836Z,101162.38
2022-11-23T00:27:59.314Z,101165.22
2022-11-23T00:30:30.410Z,101161.66
2022-11-23T00:33:01.702Z,101162.19
2022-11-23T00:35:34.662Z,101171.59
2022-11-23T00:38:05.842Z,101177.31
2022-11-23T00:40:38.574Z,101180.31
2022-11-23T00:43:09.221Z,101179.78
2022-11-23T00:45:39.773Z,101180.13
2022-11-23T00:48:13.825Z,101180.56
2022-11-23T00:50:44.717Z,101180.03
2022-11-23T00:53:15.208Z,101179.03
2022-11-23T00:55:56.304Z,101181.19
2022-11-23T00:58:27.480Z,101180.47
2022-11-23T01:01:12.472Z,101173.72
2022-11-23T01:03:46.080Z,101182.50
2022-11-23T01:06:21.841Z,101180.31
2022-11-23T01:08:55.705Z,101176.03
2022-11-23T01:11:30.019Z,101168.25
2022-11-23T01:14:01.022Z,101178.03
2022-11-23T01:16:43.146Z,101177.91
2022-11-23T01:19:17.101Z,101182.16
2022-11-23T01:21:52.072Z,101177.78
2022-11-23T01:24:24.311Z,101177.06
2022-11-23T01:26:56.253Z,101180.13
2022-11-23T01:29:27.420Z,101185.16
2022-11-23T01:31:58.775Z,101189.50
2022-11-23T01:34:29.495Z,101186.06
2022-11-23T01:37:02.454Z,101177.31
2022-11-23T01:39:33.532Z,101182.34
2022-11-23T01:42:10.243Z,101174.56
2022-11-23T01:44:46.271Z,101177.94
2022-11-23T01:47:17.120Z,101177.22
2022-11-23T01:49:51.537Z,101175.47
2022-11-23T01:52:25.624Z,101169.50
2022-11-23T01:55:01.552Z,101172.06
2022-11-23T01:57:39.898Z,101173.41
2022-11-23T02:00:14.466Z,101175.41
2022-11-23T02:02:57.952Z,101176.59
2022-11-23T02:05:45.317Z,101172.53
2022-11-23T02:08:19.306Z,101168.81
2022-11-23T02:10:51.225Z,101162.59
2022-11-23T02:13:32.114Z,101164.28
2022-11-23T02:16:06.754Z,101153.47
2022-11-23T02:18:40.180Z,101151.44
2022-11-23T02:21:13.888Z,101154.31
2022-11-23T02:24:13.831Z,101154.31
2022-11-23T02:26:45.253Z,101148.25
2022-11-23T02:29:27.052Z,101150.78
2022-11-23T02:32:04.552Z,101141.00
2022-11-23T02:34:35.915Z,101142.16
2022-11-23T02:37:10.748Z,101129.69
2022-11-23T02:39:52.304Z,101140.00
2022-11-23T02:42:25.271Z,101127.19
2022-11-23T02:45:17.816Z,101118.06
2022-11-23T02:47:50.419Z,101109.66
2022-11-23T02:50:21.347Z,101116.75
2022-11-23T02:52:51.714Z,101110.31
2022-11-23T02:55:25.486Z,101110.97
2022-11-23T02:57:56.300Z,101098.50
2022-11-23T03:00:27.588Z,101091.22
2022-11-23T03:03:00.622Z,101092.91
2022-11-23T03:05:31.629Z,101086.03
2022-11-23T03:08:08.111Z,101087.88
2022-11-23T03:10:42.026Z,101084.34
2022-11-23T03:13:12.760Z,101077.44
2022-11-23T03:15:47.625Z,101061.06
2022-11-23T03:18:18.814Z,101064.78
2022-11-23T03:21:04.195Z,101061.88
2022-11-23T03:23:35.188Z,101058.53
2022-11-23T03:26:12.820Z,101051.28
2022-11-23T03:28:56.592Z,101055.66
2022-11-23T03:31:30.989Z,101051.94
2022-11-23T03:34:03.097Z,101043.28
2022-11-23T03:36:35.306Z,101047.75
2022-11-23T03:39:06.184Z,101039.47
2022-11-23T03:41:57.275Z,101041.97
2022-11-23T03:44:33.655Z,101029.97
2022-11-23T03:47:05.941Z,101027.94
2022-11-23T03:49:38.477Z,101025.00
2022-11-23T03:52:09.793Z,101028.25
2022-11-23T03:54:41.154Z,101030.78
2022-11-23T03:57:12.086Z,101009.19
2022-11-23T03:59:44.339Z,101011.78
2022-11-23T04:02:16.912Z,101008.03
2022-11-23T04:04:54.909Z,101009.72
2022-11-23T04:08:03.773Z,100998.91
2022-11-23T04:10:34.430Z,100990.41
2022-11-23T04:13:25.619Z,100987.91
2022-11-23T04:15:55.980Z,100983.13
2022-11-23T04:18:26.622Z,100979.72
2022-11-23T04:21:00.279Z,100973.28
2022-11-23T04:23:31.707Z,100960.97
2022-11-23T04:26:02.770Z,100956.41
2022-11-23T04:28:36.965Z,100947.84
2022-11-23T04:31:07.626Z,100938.88
2022-11-23T04:33:49.130Z,100933.41
2022-11-23T04:36:22.232Z,100933.22
2022-11-23T04:38:52.666Z,100936.38
2022-11-23T04:41:29.537Z,100921.00
2022-11-23T04:44:00.807Z,100926.41
2022-11-23T04:46:31.571Z,100912.63
2022-11-23T04:49:03.853Z,100913.38
2022-11-23T04:51:36.732Z,100911.22
2022-11-23T04:54:07.397Z,100914.94
2022-11-23T04:56:46.227Z,100913.53
2022-11-23T04:59:17.512Z,100910.31
2022-11-23T05:01:48.443Z,100899.50
2022-11-23T05:04:51.442Z,100899.94
2022-11-23T05:07:23.318Z,100897.50
2022-11-23T05:09:58.979Z,100896.75
2022-11-23T05:12:30.925Z,100893.47
2022-11-23T05:15:02.239Z,100888.50
2022-11-23T05:17:38.470Z,100884.78
2022-11-23T05:20:13.888Z,100883.47
2022-11-23T05:22:50.211Z,100883.94
2022-11-23T05:25:24.211Z,100873.97
2022-11-23T05:28:16.628Z,100875.19
2022-11-23T05:30:54.786Z,100873.78
2022-11-23T05:33:27.188Z,100858.72
2022-11-23T05:35:57.929Z,100855.41
2022-11-23T05:38:38.291Z,100852.97
2022-11-23T05:41:15.147Z,100849.22
2022-11-23T05:43:47.479Z,100846.31
2022-11-23T05:46:23.844Z,100835.69
2022-11-23T05:48:55.184Z,100827.13
2022-11-23T05:51:27.623Z,100830.28
2022-11-23T05:53:59.346Z,100826.44
2022-11-23T05:56:46.774Z,100826.47
2022-11-23T05:59:27.056Z,100821.53
2022-11-23T06:02:02.793Z,100827.06
2022-11-23T06:04:36.324Z,100828.09
2022-11-23T06:07:11.353Z,100826.84
2022-11-23T06:10:07.549Z,100821.81
2022-11-23T06:12:41.745Z,100817.22
2022-11-23T06:15:16.907Z,100822.69
2022-11-23T06:17:49.343Z,100812.13
2022-11-23T06:20:23.913Z,100809.66
2022-11-23T06:23:00.841Z,100804.66
2022-11-23T06:25:32.365Z,100804.69
2022-11-23T06:28:21.690Z,100800.31
2022-11-23T06:30:53.650Z,100795.97
2022-11-23T06:33:30.441Z,100789.94
2022-11-23T06:36:04.614Z,100788.50
2022-11-23T06:38:40.963Z,100796.66
2022-11-23T06:41:18.028Z,100790.00
2022-11-23T06:43:50.569Z,100789.22
2022-11-23T06:46:36.351Z,100792.34
2022-11-23T06:49:07.402Z,100797.63
2022-11-23T06:51:38.270Z,100798.88
2022-11-23T06:54:08.672Z,100795.09
2022-11-23T06:56:39.737Z,100796.38
2022-11-23T06:59:12.153Z,100787.84
2022-11-23T07:01:43.345Z,100789.91
2022-11-23T07:04:18.057Z,100793.03
2022-11-23T07:06:52.740Z,100786.38
2022-11-23T07:09:32.963Z,100794.69
2022-11-23T07:12:24.152Z,100797.34
2022-11-23T07:14:55.176Z,100798.59
2022-11-23T07:17:27.711Z,100801.06
2022-11-23T07:19:58.333Z,100802.09
2022-11-23T07:22:29.283Z,100807.28
2022-11-23T07:24:59.865Z,100807.28
2022-11-23T07:27:30.393Z,100811.03
2022-11-23T07:30:01.396Z,100808.72
2022-11-23T07:32:32.683Z,100817.47
2022-11-23T07:35:03.450Z,100812.47
2022-11-23T07:37:36.203Z,100814.72
2022-11-23T07:40:09.180Z,100817.00
2022-11-23T07:42:44.618Z,100810.31
2022-11-23T07:45:17.281Z,100805.53
2022-11-23T07:47:48.666Z,100808.63
2022-11-23T07:50:20.045Z,100810.69
2022-11-23T07:52:50.558Z,100807.34
2022-11-23T07:55:21.068Z,100803.63
2022-11-23T07:57:56.268Z,100803.41
2022-11-23T08:00:29.527Z,100810.22
2022-11-23T08:05:52.072Z,100808.56
2022-11-23T08:08:22.644Z,100807.75
2022-11-23T08:10:54.452Z,100821.41
2022-11-23T08:13:25.752Z,100829.78
2022-11-23T08:15:56.906Z,100825.59
2022-11-23T08:18:27.145Z,100831.44
2022-11-23T08:21:01.488Z,100833.53
2022-11-23T08:23:32.272Z,100838.94
2022-11-23T08:26:09.110Z,100841.38
2022-11-23T08:28:44.645Z,100852.19
2022-11-23T08:31:18.021Z,100845.47
2022-11-23T08:33:48.928Z,100845.94
2022-11-23T08:36:19.953Z,100841.75
2022-11-23T08:38:55.249Z,100845.47
2022-11-23T08:41:26.615Z,100852.97
2022-11-23T08:43:57.149Z,100854.81
2022-11-23T08:46:27.553Z,100857.91
2022-11-23T08:48:58.244Z,100862.09
2022-11-23T08:51:29.019Z,100863.53
2022-11-23T08:53:59.671Z,100873.31
2022-11-23T08:56:30.535Z,100875.75
2022-11-23T08:59:01.510Z,100889.28
2022-11-23T09:01:31.902Z,100887.97
2022-11-23T09:04:02.979Z,100894.47
2022-11-23T09:06:36.363Z,100899.44
2022-11-23T09:09:07.557Z,100894.03
2022-11-23T09:11:38.680Z,100900.69
2022-11-23T09:14:09.129Z,100896.09
2022-11-23T09:16:40.155Z,100900.22
2022-11-23T09:19:14.454Z,100892.31
2022-11-23T09:21:44.975Z,100895.03
2022-11-23T09:24:16.065Z,100890.81
2022-11-23T09:26:48.445Z,100893.91
2022-11-23T09:29:19.386Z,100892.63
2022-11-23T09:31:49.897Z,100890.13
2022-11-23T09:34:20.433Z,100903.44
2022-11-23T09:36:51.820Z,100900.47
2022-11-23T09:39:22.399Z,100905.06
2022-11-23T09:42:11.167Z,100904.94
2022-11-23T09:44:53.188Z,100900.94
2022-11-23T09:47:31.697Z,100904.03
2022-11-23T09:50:12.955Z,100905.88
2022-11-23T09:52:46.969Z,100912.94
2022-11-23T09:55:45.172Z,100909.69
2022-11-23T09:58:19.622Z,100913.34
2022-11-23T10:01:09.041Z,100911.28
2022-11-23T10:03:46.950Z,100915.00
2022-11-23T10:06:26.575Z,100907.13
2022-11-23T10:09:27.852Z,100915.41
2022-11-23T10:12:03.605Z,100923.13
2022-11-23T10:14:55.739Z,100929.56
2022-11-23T10:17:32.110Z,100927.88
2022-11-23T10:20:20.931Z,100928.66
2022-11-23T10:23:03.060Z,100922.41
2022-11-23T10:25:39.855Z,100922.41
2022-11-23T10:28:19.275Z,100934.03
2022-11-23T10:31:03.818Z,100921.56
2022-11-23T10:33:39.535Z,100928.38
2022-11-23T10:36:12.109Z,100931.25
2022-11-23T10:38:43.388Z,100935.16
2022-11-23T10:41:17.604Z,100927.06
2022-11-23T10:44:06.346Z,100928.56
2022-11-23T10:46:38.263Z,100931.81
2022-11-23T10:49:30.215Z,100936.84
2022-11-23T10:52:31.821Z,100936.84
2022-11-23T10:55:07.347Z,100941.31
2022-11-23T10:57:46.440Z,100958.94
2022-11-23T11:00:22.815Z,100966.22
2022-11-23T11:02:58.596Z,100970.75
2022-11-23T11:06:07.569Z,100968.72
2022-11-23T11:08:27.476Z,100976.81
2022-11-23T11:11:04.049Z,100977.47
2022-11-23T11:13:50.312Z,100993.50
2022-11-23T11:16:28.401Z,100997.03
2022-11-23T11:19:23.363Z,100993.03
2022-11-23T11:21:53.765Z,100995.28
2022-11-23T11:24:37.605Z,100989.78
2022-11-23T11:27:22.656Z,101000.19
2022-11-23T11:29:56.402Z,101008.44
2022-11-23T11:32:44.997Z,101012.25
2022-11-23T11:35:21.057Z,101013.44
2022-11-23T11:37:53.795Z,101014.00
2022-11-23T11:40:26.895Z,101016.72
2022-11-23T11:43:00.933Z,101007.13
2022-11-23T11:45:59.672Z,101009.56
2022-11-23T11:48:39.150Z,101008.91
2022-11-23T11:51:32.111Z,101023.72
2022-11-23T11:54:14.321Z,101029.47
2022-11-23T11:57:12.042Z,101021.66
2022-11-23T11:59:49.577Z,101020.34
2022-11-23T12:02:28.650Z,101025.00
2022-11-23T12:05:02.387Z,101030.03
2022-11-23T12:07:37.219Z,101040.44
2022-11-23T12:10:32.280Z,101051.72
2022-11-23T12:13:02.588Z,101046.25
2022-11-23T12:15:49.609Z,101050.44
2022-11-23T12:18:29.172Z,101058.31
2022-11-23T12:21:25.732Z,101058.72
2022-11-23T12:24:49.515Z,101062.16
2022-11-23T12:27:48.506Z,101066.72
2022-11-23T12:30:28.597Z,101068.31
2022-11-23T12:33:38.382Z,101064.38
2022-11-23T12:36:26.913Z,101067.44
2022-11-23T12:39:07.254Z,101074.94
2022-11-23T12:41:55.635Z,101078.19
2022-11-23T12:44:46.923Z,101078.66
2022-11-23T12:47:32.325Z,101081.06
2022-11-23T12:50:11.257Z,101084.69
2022-11-23T12:53:19.579Z,101082.75
2022-11-23T12:56:17.003Z,101096.34
2022-11-23T12:58:49.799Z,101082.19
2022-11-23T13:01:34.083Z,101093.81
2022-11-23T13:04:41.668Z,101092.41
2022-11-23T13:07:41.027Z,101100.22
2022-11-23T13:10:25.735Z,101098.75
2022-11-23T13:13:37.418Z,101097.34
2022-11-23T13:16:18.592Z,101096.41
2022-11-23T13:19:04.733Z,101095.38
2022-11-23T13:21:46.997Z,101098.47
2022-11-23T13:24:37.150Z,101097.81
2022-11-23T13:27:16.700Z,101103.84
2022-11-23T13:29:53.210Z,101112.91
2022-11-23T13:32:43.879Z,101109.19
2022-11-23T13:35:21.312Z,101107.13
2022-11-23T13:37:57.700Z,101110.88
2022-11-23T13:40:35.759Z,101112.91
2022-11-23T13:43:30.667Z,101118.59
2022-11-23T13:46:30.042Z,101111.16
2022-11-23T13:49:01.703Z,101107.13
2022-11-23T13:51:36.774Z,101106.84
2022-11-23T13:54:28.028Z,101102.94
2022-11-23T13:57:04.245Z,101101.63
2022-11-23T13:59:35.821Z,101101.16
2022-11-23T14:02:13.444Z,101102.19
2022-11-23T14:04:46.052Z,101101.97
2022-11-23T14:07:16.699Z,101098.47
2022-11-23T14:10:10.138Z,101108.25
2022-11-23T14:12:49.259Z,101111.31
2022-11-23T14:15:29.017Z,101105.91
2022-11-23T14:18:28.682Z,101108.59
2022-11-23T14:21:08.522Z,101111.44
2022-11-23T14:23:45.050Z,101104.22
2022-11-23T14:26:36.117Z,101111.31
2022-11-23T14:29:30.187Z,101113.16
2022-11-23T14:32:41.900Z,101116.84
2022-11-23T14:35:20.725Z,101120.56
2022-11-23T14:38:31.933Z,101122.94
2022-11-23T14:41:25.434Z,101113.16
2022-11-23T14:43:57.693Z,101112.00
2022-11-23T14:46:28.304Z,101105.94
2022-11-23T14:49:12.532Z,101108.34
2022-11-23T14:51:46.114Z,101100.53
2022-11-23T14:54:17.973Z,101096.34
2022-11-23T14:56:50.614Z,101105.94
2022-11-23T14:59:39.024Z,101099.31
2022-11-23T15:02:34.452Z,101098.66
2022-11-23T15:05:27.670Z,101100.19
2022-11-23T15:08:08.021Z,101100.91
2022-11-23T15:11:01.112Z,101097.84
2022-11-23T15:13:43.580Z,101094.19
2022-11-23T15:16:16.761Z,101089.63
2022-11-23T15:18:48.355Z,101085.06
2022-11-23T15:21:26.871Z,101090.47
2022-11-23T15:23:59.199Z,101086.25
2022-11-23T15:26:48.940Z,101084.41
2022-11-23T15:29:37.444Z,101090.53
2022-11-23T15:32:34.725Z,101090.91
2022-11-23T15:35:08.278Z,101096.97
2022-11-23T15:37:51.943Z,101089.88
2022-11-23T15:40:22.843Z,101089.88
2022-11-23T15:42:53.658Z,101090.03
2022-11-23T15:45:47.386Z,101084.47
2022-11-23T15:48:20.358Z,101093.97
2022-11-23T15:51:00.306Z,101104.75
2022-11-23T15:53:50.700Z,101108.13
2022-11-23T15:56:38.531Z,101094.78
2022-11-23T15:59:29.615Z,101096.00
2022-11-23T16:02:02.829Z,101091.31
2022-11-23T16:04:40.442Z,101094.69
2022-11-23T16:07:22.853Z,101087.41
2022-11-23T16:10:07.658Z,101087.31
2022-11-23T16:12:50.731Z,101082.19
2022-11-23T16:15:39.298Z,101074.00
2022-11-23T16:18:24.718Z,101066.94
2022-11-23T16:21:05.339Z,101061.78
2022-11-23T16:23:36.012Z,101053.84
2022-11-23T16:26:07.601Z,101048.00
2022-11-23T16:28:40.677Z,101049.19
2022-11-23T16:31:50.482Z,101056.59
2022-11-23T16:34:21.378Z,101042.81
2022-11-23T16:36:52.165Z,101051.09
2022-11-23T16:39:24.081Z,101048.19
2022-11-23T16:41:54.627Z,101049.56
2022-11-23T16:44:27.910Z,101038.16
2022-11-23T16:47:18.780Z,101028.66
2022-11-23T16:49:49.690Z,101025.31
2022-11-23T16:52:21.655Z,101025.69
2022-11-23T16:54:53.546Z,101026.06
2022-11-23T16:57:35.512Z,101018.28
2022-11-23T17:00:08.931Z,101013.25
2022-11-23T17:02:42.115Z,101011.56
2022-11-23T17:05:21.395Z,101006.16
2022-11-23T17:07:51.841Z,101007.19
2022-11-23T17:10:23.218Z,101010.19
2022-11-23T17:12:56.031Z,101012.56
2022-11-23T17:15:27.053Z,101003.13
2022-11-23T17:17:57.884Z,101001.44
2022-11-23T17:20:28.442Z,101010.56
2022-11-23T17:23:02.039Z,101011.25
2022-11-23T17:25:35.434Z,101005.22
2022-11-23T17:28:07.563Z,101008.91
2022-11-23T17:30:37.879Z,101013.97
2022-11-23T17:33:11.880Z,101011.25
2022-11-23T17:35:43.415Z,101018.31
2022-11-23T17:38:16.858Z,101011.63
2022-11-23T17:40:47.899Z,101012.44
2022-11-23T17:43:18.471Z,101006.22
2022-11-23T17:45:49.432Z,101009.59
2022-11-23T17:48:20.333Z,101014.13
2022-11-23T17:50:50.581Z,101010.41
2022-11-23T17:53:25.503Z,100999.16
2022-11-23T17:55:56.501Z,101001.84
2022-11-23T17:58:26.972Z,100999.50
2022-11-23T18:00:57.830Z,100992.59
2022-11-23T18:03:28.615Z,100993.81
2022-11-23T18:06:01.113Z,100995.66
2022-11-23T18:08:34.220Z,100990.25
2022-11-23T18:11:04.440Z,100972.41
2022-11-23T18:13:35.270Z,100975.97
2022-11-23T18:16:06.256Z,100970.94
2022-11-23T18:18:38.131Z,100968.22
2022-11-23T18:21:10.644Z,100969.06
2022-11-23T18:23:40.872Z,100965.34
2022-11-23T18:26:22.935Z,100959.59
2022-11-23T18:28:53.922Z,100956.44
2022-11-23T18:31:24.764Z,100962.19
2022-11-23T18:33:55.425Z,100970.63
2022-11-23T18:36:26.034Z,100960.50
2022-11-23T18:38:57.865Z,100948.22
2022-11-23T18:41:28.538Z,100950.75
2022-11-23T18:43:59.086Z,100948.41
2022-11-23T18:46:30.532Z,100945.34
2022-11-23T18:49:01.385Z,100952.41
2022-11-23T18:51:32.182Z,100958.16
2022-11-23T18:54:02.698Z,100962.34
2022-11-23T18:56:33.562Z,100962.22
2022-11-23T18:59:04.246Z,100956.84
2022-11-23T19:01:36.012Z,100962.56
2022-11-23T19:04:06.584Z,100965.94
2022-11-23T19:06:42.203Z,100965.06
2022-11-23T19:09:17.627Z,100953.31
2022-11-23T19:11:47.993Z,100956.53
2022-11-23T19:14:22.147Z,100964.94
2022-11-23T19:16:52.668Z,100969.13
2022-11-23T19:19:23.187Z,100978.56
2022-11-23T19:21:53.664Z,100977.41
2022-11-23T19:24:24.651Z,100979.25
2022-11-23T19:26:55.651Z,100988.22
2022-11-23T19:29:27.474Z,100981.47
2022-11-23T19:31:58.206Z,100988.19
2022-11-23T19:34:28.703Z,100989.34
2022-11-23T19:37:02.368Z,100995.59
2022-11-23T19:39:35.560Z,100997.97
2022-11-23T19:42:06.182Z,100996.28
2022-11-23T19:44:36.950Z,100995.28
2022-11-23T19:47:14.488Z,101004.19
2022-11-23T19:49:47.326Z,100994.25
2022-11-23T19:52:19.910Z,101000.00
2022-11-23T19:54:50.761Z,100998.31
2022-11-23T19:57:25.724Z,100993.25
2022-11-23T19:59:56.289Z,101004.38
2022-11-23T20:02:27.337Z,101007.41
2022-11-23T20:04:57.898Z,101011.59
2022-11-23T20:07:28.468Z,101005.69
2022-11-23T20:09:59.123Z,101009.41
2022-11-23T20:12:29.723Z,101006.03
2022-11-23T20:15:00.445Z,101005.22
2022-11-23T20:17:31.907Z,101010.75
2022-11-23T20:20:03.132Z,101006.38
2022-11-23T20:22:33.697Z,101008.91
2022-11-23T20:25:04.839Z,101010.09
2022-11-23T20:27:35.659Z,101005.06
2022-11-23T20:30:06.589Z,101012.13
2022-11-23T20:32:37.579Z,101007.94
2022-11-23T20:35:08.915Z,101012.97
2022-11-23T20:37:40.368Z,101013.97
2022-11-23T20:40:11.331Z,101018.00
2022-11-23T20:42:41.885Z,101008.41
2022-11-23T20:45:14.829Z,101015.81
2022-11-23T20:47:45.457Z,101026.94
2022-11-23T20:50:16.697Z,101031.16
2022-11-23T20:52:48.125Z,101017.03
2022-11-23T20:55:24.183Z,101018.16
2022-11-23T20:57:55.856Z,101012.31
2022-11-23T21:00:26.547Z,101017.03
2022-11-23T21:02:57.673Z,101027.28
2022-11-23T21:05:28.771Z,101041.75
2022-11-23T21:07:59.321Z,101034.69
2022-11-23T21:10:48.044Z,101032.31
2022-11-23T21:13:48.960Z,101029.97
2022-11-23T21:16:22.737Z,101041.75
2022-11-23T21:18:54.396Z,101039.25
2022-11-23T21:21:24.868Z,101038.38
2022-11-23T21:23:55.206Z,101034.19
2022-11-23T21:26:25.552Z,101042.44
2022-11-23T21:28:58.267Z,101037.38
2022-11-23T21:31:30.961Z,101044.63
2022-11-23T21:34:06.116Z,101053.88
2022-11-23T21:36:39.348Z,101049.84
2022-11-23T21:39:12.329Z,101055.22
2022-11-23T21:41:45.823Z,101064.31
2022-11-23T21:44:16.276Z,101058.44
2022-11-23T21:46:50.343Z,101062.63
2022-11-23T21:49:20.748Z,101068.00
2022-11-23T21:51:51.332Z,101075.25
2022-11-23T21:54:21.808Z,101083.66
2022-11-23T21:56:53.147Z,101095.78
2022-11-23T21:59:24.216Z,101095.13
2022-11-23T22:02:01.192Z,101095.13
2022-11-23T22:04:31.868Z,101091.56
2022-11-23T22:07:03.069Z,101097.97
2022-11-23T22:09:35.301Z,101106.38
2022-11-23T22:12:09.527Z,101114.09
2022-11-23T22:14:40.093Z,101104.69
2022-11-23T22:17:10.864Z,101107.22
2022-11-23T22:19:42.352Z,101115.78
2022-11-23T22:22:12.598Z,101117.66
2022-11-23T22:24:42.816Z,101120.50
2022-11-23T22:27:15.423Z,101125.53
2022-11-23T22:29:46.013Z,101130.25
2022-11-23T22:32:16.761Z,101131.94
2022-11-23T22:34:47.623Z,101132.28
2022-11-23T22:37:18.506Z,101130.25
2022-11-23T22:39:49.115Z,101134.28
2022-11-23T22:42:19.493Z,101130.25
2022-11-23T22:44:50.615Z,101140.69
2022-11-23T22:47:23.026Z,101143.22
2022-11-23T22:49:53.724Z,101145.72
2022-11-23T22:52:24.959Z,101147.06
2022-11-23T22:54:56.017Z,101150.44
2022-11-23T22:57:29.583Z,101147.06
2022-11-23T23:00:00.174Z,101155.16
2022-11-23T23:02:32.482Z,101152.09
2022-11-23T23:05:03.666Z,101156.16
2022-11-23T23:07:34.249Z,101157.16
2022-11-23T23:10:05.467Z,101162.88
2022-11-23T23:12:36.064Z,101159.50
2022-11-23T23:15:09.121Z,101164.06
2022-11-23T23:17:40.642Z,101167.44
2022-11-23T23:20:11.423Z,101169.94
2022-11-23T23:22:41.959Z,101174.50
2022-11-23T23:25:15.636Z,101170.47
2022-11-23T23:27:46.299Z,101175.31
2022-11-23T23:30:18.198Z,101175.31
2022-11-23T23:32:49.315Z,101182.41
2022-11-23T23:35:20.193Z,101189.47
2022-11-23T23:37:53.239Z,101187.13
2022-11-23T23:40:24.043Z,101192.16
2022-11-23T23:42:55.809Z,101195.53
2022-11-23T23:45:27.081Z,101195.03
2022-11-23T23:47:59.913Z,101203.28
2022-11-23T23:50:34.147Z,101195.38
2022-11-23T23:53:05.290Z,101193.34
2022-11-23T23:55:36.644Z,101202.59
2022-11-23T23:58:06.959Z,101196.72
